Terminal Aerodrome Forecast
Issued by NWS

Home | Current Version | Previous Version | Text Only | Print | Product List | Glossary On
Versions: 1 2 3 4 5 6 7 8 9 10 11 12 13 14
844
FTUS43 KTOP 242013 AAA
TAFMHK
TAF AMD
KMHK 242013Z 2420/2518 19012KT P6SM VCSH SCT060 SCT150
     FM250000 16007KT P6SM SCT200
     FM250800 18007KT P6SM VCSH SCT050 BKN100
     FM251200 19007KT 6SM -SHRA VCTS SCT030 BKN080CB=

USA.gov is the U.S. government's official web portal to all federal, state and local government web resources and services.